Time;durP1;ratioP1;P1;durP2;ratioP2;P2;SDS_P1;SDS_P2;PMS_P1;PMS_P2;Temp;Humidity;BMP_temperature;BMP_pressure;BME280_temperature;BME280_humidity;BME280_pressure;Samples;Min_cycle;Max_cycle;Signal;HPM_P1;HPM_P2
2020/12/23 00:00:16;;;;;;;6.05;4.20;;;;;;;10.16;76.30;100192.66;125618;1108;24833;-76
2020/12/23 00:03:01;;;;;;;4.53;3.58;;;;;;;10.11;76.34;100190.48;125554;1107;23414;-76
2020/12/23 00:05:29;;;;;;;6.58;3.33;;;;;;;10.10;76.14;100201.59;125638;1108;25055;-74
2020/12/23 00:07:58;;;;;;;5.17;3.57;;;;;;;10.07;76.20;100207.41;125571;1108;23449;-74
2020/12/23 00:10:26;;;;;;;6.35;3.50;;;;;;;10.04;75.87;100200.47;125633;1107;23457;-75
2020/12/23 00:12:54;;;;;;;7.53;3.37;;;;;;;10.03;76.41;100204.25;125593;1107;26490;-75
2020/12/23 00:15:22;;;;;;;6.03;3.35;;;;;;;10.00;75.50;100205.45;125629;1108;23391;-76
2020/12/23 00:17:51;;;;;;;4.50;3.20;;;;;;;9.99;76.26;100211.12;125618;1108;23411;-76
2020/12/23 00:20:19;;;;;;;6.65;4.28;;;;;;;9.97;76.23;100208.58;125607;1108;23495;-74
2020/12/23 00:22:48;;;;;;;8.48;3.70;;;;;;;9.96;76.13;100212.35;125571;1108;26814;-75
2020/12/23 00:25:16;;;;;;;11.90;4.10;;;;;;;9.97;76.08;100224.09;125553;1107;23340;-75
2020/12/23 00:27:45;;;;;;;5.73;3.90;;;;;;;9.97;75.91;100224.09;125599;1108;23395;-75
2020/12/23 00:30:14;;;;;;;6.55;4.15;;;;;;;9.97;75.89;100226.81;125589;1108;24862;-74
2020/12/23 00:32:42;;;;;;;9.95;4.85;;;;;;;9.96;75.84;100227.83;125586;1108;23426;-75
2020/12/23 00:35:10;;;;;;;9.47;5.10;;;;;;;9.97;75.89;100249.45;125582;1108;26463;-75
2020/12/23 00:37:38;;;;;;;6.78;4.50;;;;;;;9.97;76.56;100245.89;125587;1108;23435;-75
2020/12/23 00:40:07;;;;;;;7.47;4.62;;;;;;;9.98;76.42;100250.29;125549;1108;24967;-76
2020/12/23 00:42:35;;;;;;;9.35;5.30;;;;;;;9.96;76.10;100228.70;125566;1108;23426;-75
2020/12/23 00:45:04;;;;;;;11.03;5.65;;;;;;;9.96;76.21;100216.94;125587;1108;23409;-76
2020/12/23 00:47:32;;;;;;;14.05;6.92;;;;;;;9.95;76.40;100213.37;125613;1107;24945;-75
2020/12/23 00:50:00;;;;;;;10.90;7.05;;;;;;;9.95;76.14;100216.09;125597;1107;23472;-76
2020/12/23 00:52:28;;;;;;;14.90;7.95;;;;;;;9.93;76.56;100204.54;125588;1108;23377;-75
2020/12/23 00:54:57;;;;;;;12.30;7.47;;;;;;;9.93;76.07;100217.33;125666;1107;23442;-76
2020/12/23 00:57:29;;;;;;;9.28;6.42;;;;;;;9.90;76.06;100223.14;125631;1107;23479;-76
2020/12/23 00:59:57;;;;;;;15.23;7.17;;;;;;;9.87;76.06;100221.64;125565;1108;23830;-77
2020/12/23 01:02:25;;;;;;;16.03;7.10;;;;;;;9.86;75.91;100232.73;125601;1107;23369;-76
2020/12/23 01:04:54;;;;;;;14.90;7.53;;;;;;;9.83;75.99;100239.41;125657;1108;23388;-77
2020/12/23 01:07:22;;;;;;;13.10;8.47;;;;;;;9.82;76.08;100237.73;125599;1108;23514;-76
2020/12/23 01:09:50;;;;;;;14.43;8.95;;;;;;;9.79;76.60;100227.20;125607;1108;23500;-76
2020/12/23 01:12:18;;;;;;;10.93;7.47;;;;;;;9.75;76.28;100218.58;125628;1108;26874;-77
2020/12/23 01:14:47;;;;;;;14.95;9.00;;;;;;;9.72;76.07;100210.77;125548;1108;23370;-76
2020/12/23 01:17:16;;;;;;;11.60;9.00;;;;;;;9.71;75.90;100213.70;125645;1108;26837;-76
2020/12/23 01:19:45;;;;;;;13.68;8.43;;;;;;;9.68;75.83;100193.11;125618;1108;25066;-76
2020/12/23 01:22:13;;;;;;;14.65;9.65;;;;;;;9.67;76.36;100198.77;125632;1108;23388;-75
2020/12/23 01:24:41;;;;;;;12.58;9.30;;;;;;;9.64;76.66;100208.14;125600;1107;23381;-74
2020/12/23 01:27:09;;;;;;;10.68;7.60;;;;;;;9.61;76.11;100205.81;125574;1107;23347;-77
2020/12/23 01:29:38;;;;;;;14.43;8.50;;;;;;;9.61;76.67;100206.64;125560;1109;27190;-76
2020/12/23 01:32:06;;;;;;;14.23;7.97;;;;;;;9.60;76.82;100204.97;125654;1108;26861;-77
2020/12/23 01:34:34;;;;;;;14.18;8.48;;;;;;;9.59;76.70;100219.61;125577;1108;24543;-77
2020/12/23 01:37:02;;;;;;;15.20;8.65;;;;;;;9.58;76.36;100230.67;125535;1108;23522;-75
2020/12/23 01:39:30;;;;;;;12.75;7.65;;;;;;;9.56;76.34;100220.00;125564;1108;27480;-75
2020/12/23 01:41:59;;;;;;;12.27;7.60;;;;;;;9.53;76.07;100216.80;125573;1108;26875;-75
2020/12/23 01:44:27;;;;;;;13.00;8.28;;;;;;;9.52;76.15;100228.73;125630;1108;23519;-75
2020/12/23 01:46:55;;;;;;;11.70;7.50;;;;;;;9.50;76.10;100228.91;125637;1107;23409;-75
2020/12/23 01:49:23;;;;;;;11.38;7.75;;;;;;;9.48;76.04;100224.70;125600;1108;23549;-76
2020/12/23 01:51:51;;;;;;;10.50;6.80;;;;;;;9.46;76.45;100224.88;125578;1108;23391;-76
2020/12/23 01:54:20;;;;;;;11.08;6.87;;;;;;;9.46;76.55;100224.88;125545;1108;23271;-76
2020/12/23 01:56:48;;;;;;;14.95;6.83;;;;;;;9.44;76.50;100228.83;125626;1108;23363;-77
2020/12/23 01:59:16;;;;;;;12.68;6.53;;;;;;;9.44;76.19;100243.27;125590;1108;24887;-76
2020/12/23 02:01:49;;;;;;;15.78;7.20;;;;;;;9.45;76.36;100264.01;125591;1108;23417;-75
2020/12/23 02:04:22;;;;;;;12.28;7.92;;;;;;;9.44;76.15;100256.05;125593;1108;26574;-76
2020/12/23 02:06:51;;;;;;;9.23;6.33;;;;;;;9.42;76.28;100258.95;125618;1108;27970;-76
2020/12/23 02:09:19;;;;;;;11.10;6.90;;;;;;;9.40;76.55;100267.30;125635;1107;23380;-76
2020/12/23 02:11:48;;;;;;;9.75;6.72;;;;;;;9.39;76.50;100251.17;125614;1107;23456;-74
2020/12/23 02:14:16;;;;;;;10.95;7.72;;;;;;;9.38;75.92;100241.30;125557;1107;26443;-74
2020/12/23 02:16:44;;;;;;;10.95;7.15;;;;;;;9.38;76.44;100241.30;125566;1107;24773;-75
2020/12/23 02:19:14;;;;;;;9.90;6.73;;;;;;;9.37;76.05;100253.23;125534;1107;23386;-75
2020/12/23 02:21:42;;;;;;;11.33;7.03;;;;;;;9.36;75.80;100248.80;125563;1108;26821;-75
2020/12/23 02:24:11;;;;;;;9.13;7.05;;;;;;;9.33;75.97;100243.74;125668;1108;26536;-76
2020/12/23 02:26:39;;;;;;;13.83;6.87;;;;;;;9.30;76.28;100244.97;125738;1107;23485;-76
2020/12/23 02:29:08;;;;;;;10.13;6.37;;;;;;;9.27;75.72;100245.32;125592;1108;23495;-75
2020/12/23 02:31:37;;;;;;;9.68;7.37;;;;;;;9.24;75.97;100236.67;125570;1108;23363;-77
2020/12/23 02:34:05;;;;;;;8.93;6.43;;;;;;;9.23;76.30;100240.44;125591;1108;23376;-75
2020/12/23 02:36:33;;;;;;;13.10;6.95;;;;;;;9.23;76.21;100243.16;125553;1107;23532;-75
2020/12/23 02:39:02;;;;;;;14.13;6.62;;;;;;;9.19;76.24;100254.40;125638;1107;23414;-75
2020/12/23 02:41:30;;;;;;;8.50;6.40;;;;;;;9.18;75.79;100265.50;125641;1107;26520;-77
2020/12/23 02:43:58;;;;;;;9.60;6.10;;;;;;;9.17;75.80;100270.10;125625;1108;27979;-76
2020/12/23 02:46:27;;;;;;;8.65;6.20;;;;;;;9.16;75.67;100265.67;125572;1108;23471;-76
2020/12/23 02:48:55;;;;;;;12.53;6.60;;;;;;;9.16;75.90;100262.11;125634;1108;23373;-77
2020/12/23 02:51:23;;;;;;;9.63;6.10;;;;;;;9.15;76.31;100258.55;125536;1107;23330;-75
2020/12/23 02:53:51;;;;;;;8.80;6.33;;;;;;;9.16;76.20;100260.23;125558;1108;23408;-76
2020/12/23 02:56:19;;;;;;;8.53;7.03;;;;;;;9.15;76.04;100249.52;125577;1108;23383;-75
2020/12/23 02:58:47;;;;;;;10.60;7.00;;;;;;;9.12;75.96;100242.58;125594;1108;23434;-74
2020/12/23 03:01:16;;;;;;;10.10;6.28;;;;;;;9.09;75.60;100253.84;125589;1107;23389;-73
2020/12/23 03:03:44;;;;;;;10.40;5.70;;;;;;;9.05;75.55;100249.80;125573;1108;23363;-75
2020/12/23 03:06:12;;;;;;;11.55;6.00;;;;;;;9.02;75.62;100241.98;125620;1107;25102;-74
2020/12/23 03:08:41;;;;;;;9.25;5.60;;;;;;;9.00;75.89;100238.59;125601;1108;23518;-74
2020/12/23 03:11:09;;;;;;;10.33;5.60;;;;;;;8.98;75.52;100248.81;125566;1107;23967;-74
2020/12/23 03:13:37;;;;;;;10.08;5.50;;;;;;;8.97;75.09;100247.14;125568;1107;23396;-74
2020/12/23 03:16:06;;;;;;;7.67;4.97;;;;;;;8.95;75.74;100247.32;125570;1109;23375;-74
2020/12/23 03:18:34;;;;;;;10.00;5.23;;;;;;;8.92;75.37;100242.26;125646;1108;23514;-76
2020/12/23 03:21:02;;;;;;;8.75;5.55;;;;;;;8.90;75.19;100249.76;125575;1108;26853;-75
2020/12/23 03:23:30;;;;;;;7.15;4.85;;;;;;;8.88;75.13;100240.09;125554;1108;23367;-76
2020/12/23 03:25:59;;;;;;;11.83;5.80;;;;;;;8.85;75.63;100241.28;125587;1108;23375;-75
2020/12/23 03:28:27;;;;;;;7.75;5.10;;;;;;;8.85;75.59;100251.32;125590;1108;23363;-75
2020/12/23 03:30:55;;;;;;;7.50;4.83;;;;;;;8.84;75.86;100261.36;125525;1108;24721;-77
2020/12/23 03:33:23;;;;;;;11.00;4.75;;;;;;;8.85;75.29;100259.48;125523;1108;23250;-75
2020/12/23 03:35:52;;;;;;;6.85;4.75;;;;;;;8.84;75.13;100258.64;125579;1107;25110;-75
2020/12/23 03:38:20;;;;;;;11.00;5.65;;;;;;;8.82;75.43;100257.98;125658;1107;27497;-76
2020/12/23 03:40:49;;;;;;;6.87;5.00;;;;;;;8.82;75.64;100265.30;125584;1108;23373;-74
2020/12/23 03:43:17;;;;;;;7.65;4.92;;;;;;;8.80;75.81;100265.48;125576;1108;23597;-75
2020/12/23 03:45:45;;;;;;;8.08;4.75;;;;;;;8.82;75.53;100268.02;125329;1109;23588;-75
2020/12/23 03:48:13;;;;;;;8.18;5.10;;;;;;;8.79;74.97;100264.64;125591;1108;23530;-75
2020/12/23 03:50:42;;;;;;;8.13;5.28;;;;;;;8.79;75.59;100267.36;125601;1108;23379;-74
2020/12/23 03:53:10;;;;;;;10.75;6.10;;;;;;;8.77;75.16;100266.69;125635;1107;26940;-74
2020/12/23 03:55:39;;;;;;;10.67;6.20;;;;;;;8.74;75.64;100267.03;125613;1108;23484;-74
2020/12/23 03:58:07;;;;;;;12.82;5.60;;;;;;;8.73;75.16;100278.13;125629;1108;23446;-74
2020/12/23 04:00:36;;;;;;;9.03;4.92;;;;;;;8.71;75.00;100278.30;125590;1108;23528;-76
2020/12/23 04:04:16;;;;;;;6.87;4.58;;;;;;;8.69;75.71;100274.91;125541;1108;23382;-75
2020/12/23 04:07:03;;;;;;;7.45;4.75;;;;;;;8.65;75.49;100284.45;125614;1107;26372;-77
2020/12/23 04:09:31;;;;;;;8.70;4.93;;;;;;;8.64;75.50;100288.22;125599;1108;23478;-75
2020/12/23 04:11:59;;;;;;;9.60;5.60;;;;;;;8.63;75.19;100293.83;125632;1107;23364;-75
2020/12/23 04:14:27;;;;;;;10.25;5.65;;;;;;;8.62;75.55;100302.99;125589;1108;24019;-76
2020/12/23 04:16:55;;;;;;;9.07;5.63;;;;;;;8.62;75.75;100301.14;125600;1107;23440;-77
2020/12/23 04:19:23;;;;;;;7.45;5.75;;;;;;;8.62;75.37;100298.42;125654;1108;25079;-77
2020/12/23 04:21:52;;;;;;;6.72;4.65;;;;;;;8.63;75.65;100302.83;125626;1107;23472;-75
2020/12/23 04:24:20;;;;;;;9.43;5.95;;;;;;;8.61;75.75;100298.59;125571;1107;24729;-76
2020/12/23 04:26:48;;;;;;;10.90;7.47;;;;;;;8.61;75.62;100299.44;125571;1108;27966;-76
2020/12/23 04:29:16;;;;;;;11.13;8.20;;;;;;;8.60;75.67;100295.04;125557;1107;23452;-78
2020/12/23 04:31:45;;;;;;;11.08;9.40;;;;;;;8.59;75.31;100309.64;125296;1109;23440;-77
2020/12/23 04:34:13;;;;;;;24.98;14.53;;;;;;;8.55;75.38;100308.30;125647;1108;23419;-77
2020/12/23 04:36:42;;;;;;;18.42;13.85;;;;;;;8.54;75.57;100312.91;125735;1108;23389;-76
2020/12/23 04:39:10;;;;;;;16.90;11.63;;;;;;;8.55;75.18;100317.30;125559;1109;23385;-76
2020/12/23 04:41:38;;;;;;;14.63;10.60;;;;;;;8.53;75.57;100307.64;125557;1108;23429;-78
2020/12/23 04:44:07;;;;;;;16.42;8.88;;;;;;;8.50;75.45;100308.85;125605;1108;23444;-76
2020/12/23 04:46:41;;;;;;;31.42;10.03;;;;;;;8.47;75.32;100305.63;125586;1108;23382;-74
2020/12/23 04:49:09;;;;;;;12.53;8.03;;;;;;;8.45;75.93;100311.27;125747;1107;23478;-75
2020/12/23 04:51:40;;;;;;;12.58;8.63;;;;;;;8.44;75.70;100311.44;125580;1108;23469;-74
2020/12/23 04:54:08;;;;;;;12.47;8.23;;;;;;;8.44;75.87;100303.28;125597;1107;23578;-75
2020/12/23 04:56:38;;;;;;;8.70;7.37;;;;;;;8.43;75.86;100290.70;125571;1108;23369;-76
2020/12/23 04:59:06;;;;;;;9.78;8.68;;;;;;;8.42;75.97;100294.46;125527;1108;27420;-76
2020/12/23 05:01:34;;;;;;;10.03;8.07;;;;;;;8.38;76.20;100294.80;125549;1108;23369;-76
2020/12/23 05:04:03;;;;;;;10.80;7.50;;;;;;;8.37;75.26;100303.12;125560;1108;23369;-76
2020/12/23 05:06:36;;;;;;;10.43;9.33;;;;;;;8.36;75.54;100306.85;125536;1108;23374;-75
2020/12/23 05:09:06;;;;;;;12.00;8.28;;;;;;;8.34;75.49;100309.77;125576;1108;23424;-76
2020/12/23 05:11:36;;;;;;;12.63;9.05;;;;;;;8.32;76.33;100316.39;125673;1108;27146;-76
2020/12/23 05:14:10;;;;;;;9.78;7.28;;;;;;;8.30;75.79;100322.02;125597;1108;23401;-75
2020/12/23 05:16:40;;;;;;;12.47;7.05;;;;;;;8.28;76.10;100315.05;125742;1108;23341;-75
2020/12/23 05:19:09;;;;;;;9.33;7.83;;;;;;;8.24;75.70;100325.45;125606;1107;24155;-76
2020/12/23 05:21:40;;;;;;;11.10;8.25;;;;;;;8.19;75.53;100311.52;125605;1108;23439;-75
2020/12/23 05:24:09;;;;;;;12.50;9.35;;;;;;;8.14;75.77;100313.94;125621;1108;26690;-76
2020/12/23 05:26:44;;;;;;;14.85;9.30;;;;;;;8.09;75.84;100313.63;125609;1108;26542;-74
2020/12/23 05:29:14;;;;;;;12.85;8.23;;;;;;;8.04;75.60;100322.28;125734;1107;23763;-75
2020/12/23 05:31:42;;;;;;;9.93;8.20;;;;;;;7.98;75.87;100315.70;125590;1108;23435;-74
2020/12/23 05:34:11;;;;;;;14.78;8.58;;;;;;;7.93;75.62;100315.36;125613;1108;27169;-75
2020/12/23 05:36:40;;;;;;;14.43;9.05;;;;;;;7.90;75.35;100317.60;125704;1108;23442;-75
2020/12/23 05:39:09;;;;;;;14.65;9.35;;;;;;;7.85;76.00;100326.28;125682;1108;23504;-75
2020/12/23 05:41:39;;;;;;;14.07;9.70;;;;;;;7.80;75.73;100323.22;125591;1108;26610;-75
2020/12/23 05:44:19;;;;;;;21.33;13.53;;;;;;;7.73;75.59;100314.93;125558;1107;23338;-75
2020/12/23 05:46:49;;;;;;;20.32;13.80;;;;;;;7.67;75.89;100307.48;125661;1108;23434;-78
2020/12/23 05:49:19;;;;;;;30.05;20.35;;;;;;;7.63;75.67;100306.13;125594;1108;23993;-77
2020/12/23 05:51:50;;;;;;;38.02;24.85;;;;;;;7.61;76.13;100304.61;125555;1107;23434;-78
2020/12/23 05:54:20;;;;;;;39.48;23.92;;;;;;;7.56;76.49;100311.41;125971;1108;23433;-75
2020/12/23 05:56:53;;;;;;;30.92;22.32;;;;;;;7.52;75.96;100311.92;125764;1108;23526;-76
2020/12/23 05:59:21;;;;;;;33.97;23.57;;;;;;;7.47;75.88;100312.45;125387;1100;23438;-75
2020/12/23 06:01:50;;;;;;;83.15;41.28;;;;;;;7.45;76.37;100308.22;125574;1108;23378;-75
2020/12/23 06:04:18;;;;;;;61.48;35.80;;;;;;;7.43;76.16;100323.83;125612;1107;23423;-74
2020/12/23 06:07:06;;;;;;;98.47;50.27;;;;;;;7.39;76.20;100326.03;125607;1108;23369;-76
2020/12/23 06:09:46;;;;;;;41.80;24.82;;;;;;;7.36;75.76;100321.80;125573;1108;23852;-76
2020/12/23 06:12:21;;;;;;;28.60;20.80;;;;;;;7.33;76.84;100324.00;125301;1109;23367;-76
2020/12/23 06:15:00;;;;;;;28.92;20.40;;;;;;;7.26;76.31;100320.28;125688;1108;23402;-76
2020/12/23 06:17:30;;;;;;;31.63;23.43;;;;;;;7.18;75.87;100325.71;125640;1107;23363;-77
2020/12/23 06:20:00;;;;;;;36.53;24.13;;;;;;;7.11;76.56;100331.81;125529;1108;23400;-76
2020/12/23 06:22:29;;;;;;;32.93;23.52;;;;;;;7.04;76.02;100328.09;125593;1108;23385;-75
2020/12/23 06:25:00;;;;;;;31.33;23.25;;;;;;;7.02;76.75;100335.55;125588;1107;26542;-75
2020/12/23 06:27:33;;;;;;;31.40;24.30;;;;;;;7.00;76.26;100339.42;125591;1107;23518;-76
2020/12/23 06:30:01;;;;;;;33.38;25.35;;;;;;;6.73;77.16;100303.48;125653;1108;23421;-81
2020/12/23 06:32:30;;;;;;;34.35;26.05;;;;;;;7.01;77.17;100339.26;125639;1108;23438;-78
2020/12/23 06:35:01;;;;;;;37.10;28.20;;;;;;;7.02;76.63;100332.84;125665;1107;23575;-83
2020/12/23 06:37:34;;;;;;;44.27;26.63;;;;;;;7.01;76.98;100333.84;125667;1107;23568;-79
2020/12/23 06:40:10;;;;;;;39.92;27.22;;;;;;;6.99;77.11;100341.30;125859;1108;23381;-81
2020/12/23 06:42:48;;;;;;;41.88;27.30;;;;;;;6.96;76.46;100330.80;125687;1108;23613;-82
2020/12/23 06:45:16;;;;;;;43.38;30.88;;;;;;;6.94;76.58;100336.38;125747;1108;23556;-80
2020/12/23 06:47:44;;;;;;;43.35;31.93;;;;;;;6.92;76.58;100342.99;125621;1108;23824;-80
2020/12/23 06:50:26;;;;;;;52.70;32.42;;;;;;;6.90;76.46;100339.60;125701;1108;23518;-82
2020/12/23 06:52:54;;;;;;;55.93;32.30;;;;;;;6.89;76.83;100340.59;125701;1108;23340;-79
2020/12/23 06:55:48;;;;;;;50.70;33.35;;;;;;;6.87;77.32;100337.20;125619;1108;26546;-80
2020/12/23 06:58:42;;;;;;;51.85;33.90;;;;;;;6.89;77.13;100333.34;125688;1108;23464;-81
2020/12/23 07:01:19;;;;;;;59.30;39.00;;;;;;;6.89;77.14;100333.34;125721;1108;23373;-80
2020/12/23 07:03:49;;;;;;;50.33;33.15;;;;;;;6.91;77.56;100335.86;125643;1108;23400;-81
2020/12/23 07:06:32;;;;;;;47.45;31.75;;;;;;;6.89;77.43;100335.17;125626;1107;26437;-80
2020/12/23 07:09:05;;;;;;;48.63;28.73;;;;;;;6.87;77.68;100337.20;125653;1107;23518;-80
2020/12/23 07:11:37;;;;;;;44.15;29.98;;;;;;;6.87;77.20;100342.63;125633;1107;26463;-80
2020/12/23 07:14:06;;;;;;;46.13;29.82;;;;;;;6.85;76.76;100339.23;125659;1108;23370;-81
2020/12/23 07:16:41;;;;;;;41.37;28.35;;;;;;;6.84;77.82;100346.53;125640;1108;23446;-81
2020/12/23 07:19:12;;;;;;;61.92;35.90;;;;;;;6.87;77.75;100348.05;125628;1108;23419;-82
2020/12/23 07:21:41;;;;;;;56.13;36.38;;;;;;;6.89;76.90;100346.02;125699;1108;25670;-80
2020/12/23 07:24:10;;;;;;;58.08;35.92;;;;;;;6.92;77.72;100345.70;125615;1108;27892;-80
2020/12/23 07:26:38;;;;;;;44.97;31.93;;;;;;;6.97;77.61;100351.46;125664;1107;23408;-80
2020/12/23 07:29:10;;;;;;;56.08;34.50;;;;;;;7.00;78.17;100355.70;125606;1108;26846;-80
2020/12/23 07:31:40;;;;;;;65.57;39.23;;;;;;;7.07;78.59;100370.30;125640;1107;23446;-80
2020/12/23 07:34:09;;;;;;;65.40;44.23;;;;;;;7.14;78.32;100361.30;125726;1107;23373;-82
2020/12/23 07:36:39;;;;;;;101.97;61.68;;;;;;;7.21;78.22;100366.92;125635;1108;26463;-81
2020/12/23 07:39:07;;;;;;;149.50;84.33;;;;;;;7.26;77.93;100371.84;125657;1108;23419;-82
2020/12/23 07:41:35;;;;;;;229.05;102.25;;;;;;;7.29;77.81;100357.92;125597;1108;23449;-81
2020/12/23 07:44:11;;;;;;;266.57;108.63;;;;;;;7.29;77.30;100364.19;125603;1108;23381;-80
2020/12/23 07:46:39;;;;;;;251.53;102.13;;;;;;;7.32;77.50;100376.59;125701;1108;23395;-82
2020/12/23 07:49:09;;;;;;;266.82;102.80;;;;;;;7.36;78.00;100372.49;125579;1109;25090;-81
2020/12/23 07:51:38;;;;;;;236.82;99.10;;;;;;;7.40;78.50;100371.13;125332;1108;23487;-80
2020/12/23 07:54:10;;;;;;;207.43;88.80;;;;;;;7.45;77.45;100368.77;125657;1108;23521;-81
2020/12/23 07:56:38;;;;;;;;;;;;;;;7.48;77.57;100368.42;125791;1108;23375;-81
2020/12/23 07:59:09;;;;;;;188.33;83.83;;;;;;;7.49;77.87;100372.84;125726;1108;21513;-80
2020/12/23 08:01:41;;;;;;;211.00;93.10;;;;;;;7.50;77.47;100371.81;125645;1108;23498;-80
2020/12/23 08:04:10;;;;;;;183.62;85.15;;;;;;;7.51;77.21;100375.36;125776;1108;23472;-80
2020/12/23 08:06:38;;;;;;;149.90;74.22;;;;;;;7.52;77.17;100375.20;125613;1108;23455;-81
2020/12/23 08:09:10;;;;;;;158.18;79.17;;;;;;;7.53;77.91;100371.48;125671;1109;23455;-82
2020/12/23 08:11:39;;;;;;;155.72;75.20;;;;;;;7.53;76.96;100371.48;125639;1108;23576;-82
2020/12/23 08:14:07;;;;;;;138.52;74.32;;;;;;;7.51;77.62;100381.67;125601;1108;23371;-76
2020/12/23 08:16:36;;;;;;;161.00;80.55;;;;;;;7.55;77.19;100379.44;125706;1108;23400;-80
2020/12/23 08:19:04;;;;;;;162.75;85.53;;;;;;;7.60;77.27;100373.52;125678;1107;23479;-80
2020/12/23 08:21:33;;;;;;;156.20;84.85;;;;;;;7.63;77.37;100375.87;125668;1108;23437;-82
2020/12/23 08:24:01;;;;;;;134.05;76.33;;;;;;;7.65;77.67;100368.41;125707;1108;23527;-81
2020/12/23 08:26:30;;;;;;;169.20;88.30;;;;;;;7.67;77.69;100360.94;125608;1107;23390;-80
2020/12/23 08:28:58;;;;;;;188.90;94.05;;;;;;;7.69;77.40;100369.77;125652;1108;23375;-81
2020/12/23 08:31:35;;;;;;;189.90;96.53;;;;;;;7.70;77.00;100376.88;125662;1108;23430;-83
2020/12/23 08:34:06;;;;;;;187.47;100.23;;;;;;;7.69;76.69;100380.63;125571;1107;26943;-83
2020/12/23 08:36:35;;;;;;;166.85;86.67;;;;;;;7.68;76.71;100377.06;125754;1107;23388;-80
2020/12/23 08:39:04;;;;;;;153.15;85.67;;;;;;;7.69;77.46;100383.34;125658;1107;23435;-80
2020/12/23 08:41:32;;;;;;;216.55;108.95;;;;;;;7.69;77.18;100392.33;125636;1108;23519;-80
2020/12/23 08:44:02;;;;;;;191.88;104.53;;;;;;;7.72;77.19;100391.12;125663;1108;26878;-81
2020/12/23 08:46:37;;;;;;;169.43;94.50;;;;;;;7.77;77.26;100399.63;125627;1108;25066;-80
2020/12/23 08:49:06;;;;;;;154.50;86.42;;;;;;;7.81;77.47;100406.41;125657;1108;23348;-81
2020/12/23 08:51:35;;;;;;;142.00;84.97;;;;;;;7.85;77.39;100406.89;125667;1109;27189;-81
2020/12/23 08:54:15;;;;;;;149.72;85.83;;;;;;;7.86;77.06;100398.58;125604;1108;23584;-80
2020/12/23 08:56:48;;;;;;;137.77;84.67;;;;;;;7.89;77.64;100397.38;125696;1108;23371;-79
2020/12/23 08:59:16;;;;;;;126.92;82.75;;;;;;;7.94;78.23;100395.84;125602;1107;23366;-80
2020/12/23 09:01:45;;;;;;;131.87;76.45;;;;;;;8.00;77.94;100394.32;125694;1107;25119;-79
2020/12/23 09:04:13;;;;;;;126.93;69.37;;;;;;;8.02;77.67;100400.39;125618;1108;26868;-82
2020/12/23 09:06:44;;;;;;;108.40;61.60;;;;;;;8.05;77.40;100404.66;125736;1108;23512;-80
2020/12/23 09:09:19;;;;;;;116.17;67.25;;;;;;;8.04;76.89;100394.80;125651;1108;23421;-81
2020/12/23 09:11:48;;;;;;;129.82;83.25;;;;;;;8.10;77.00;100394.95;125636;1108;23421;-79
2020/12/23 09:14:21;;;;;;;132.10;84.10;;;;;;;8.16;77.83;100394.25;125833;1108;23421;-80
2020/12/23 09:17:22;;;;;;;134.50;83.50;;;;;;;8.21;77.23;100391.00;125700;1108;24303;-79
2020/12/23 09:19:54;;;;;;;123.42;80.38;;;;;;;8.27;77.43;100400.34;125740;1107;23438;-80
2020/12/23 09:22:41;;;;;;;120.02;73.30;;;;;;;8.31;77.59;100402.52;125646;1108;23416;-79
2020/12/23 09:25:18;;;;;;;119.20;77.12;;;;;;;8.35;77.05;100395.72;125655;1108;23571;-79
2020/12/23 09:27:56;;;;;;;119.40;76.95;;;;;;;8.36;77.07;100385.68;125654;1108;23386;-82
2020/12/23 09:30:39;;;;;;;128.78;79.50;;;;;;;8.39;77.00;100379.91;125590;1108;23549;-79
2020/12/23 09:33:20;;;;;;;118.45;76.25;;;;;;;8.42;76.57;100386.89;125684;1108;23374;-84
2020/12/23 09:35:51;;;;;;;124.67;80.83;;;;;;;8.45;77.17;100387.39;125627;1108;23448;-80
2020/12/23 09:38:27;;;;;;;183.57;112.70;;;;;;;8.45;76.68;100381.09;125706;1108;23902;-82
2020/12/23 09:40:58;;;;;;;127.53;79.20;;;;;;;8.40;76.19;100378.87;125749;1108;23629;-80
2020/12/23 09:43:32;;;;;;;105.60;65.45;;;;;;;8.35;76.29;100371.25;125782;1108;25233;-82
2020/12/23 09:46:11;;;;;;;113.75;66.82;;;;;;;8.34;76.80;100371.42;125617;1108;26490;-80
2020/12/23 09:48:40;;;;;;;112.33;71.27;;;;;;;8.35;76.70;100368.53;125648;1107;23544;-80
2020/12/23 09:51:08;;;;;;;123.50;73.45;;;;;;;8.37;76.12;100363.77;125650;1107;23381;-82
2020/12/23 09:53:37;;;;;;;123.13;75.45;;;;;;;8.41;76.86;100358.86;125676;1108;23909;-81
2020/12/23 09:56:05;;;;;;;140.88;83.22;;;;;;;8.48;76.54;100365.27;125596;1108;25006;-81
2020/12/23 09:58:33;;;;;;;122.80;79.05;;;;;;;8.52;76.63;100366.62;125651;1108;26843;-81
2020/12/23 10:01:02;;;;;;;120.00;78.12;;;;;;;8.54;76.43;100380.05;125634;1107;23368;-80
2020/12/23 10:03:30;;;;;;;115.95;77.90;;;;;;;8.51;76.25;100374.94;125646;1107;26587;-81
2020/12/23 10:05:58;;;;;;;133.95;82.47;;;;;;;8.56;76.73;100372.55;125609;1108;23898;-80
2020/12/23 10:08:30;;;;;;;128.55;83.35;;;;;;;8.62;76.46;100374.56;125641;1107;23364;-81
2020/12/23 10:10:58;;;;;;;127.37;83.47;;;;;;;8.64;76.50;100364.36;125621;1107;23349;-79
2020/12/23 10:13:26;;;;;;;127.00;86.30;;;;;;;8.68;76.28;100360.23;125588;1108;23394;-81
2020/12/23 10:15:54;;;;;;;126.97;81.70;;;;;;;8.74;76.24;100364.95;125623;1107;23373;-82
2020/12/23 10:18:22;;;;;;;116.00;72.30;;;;;;;8.78;76.02;100368.17;125602;1108;23363;-80
2020/12/23 10:20:50;;;;;;;104.55;65.37;;;;;;;8.79;76.33;100359.84;125609;1108;23468;-79
2020/12/23 10:23:18;;;;;;;95.22;63.75;;;;;;;8.81;76.06;100366.96;125662;1108;26508;-80
2020/12/23 10:25:47;;;;;;;102.10;64.77;;;;;;;8.79;75.95;100359.84;125622;1108;23364;-81
2020/12/23 10:28:15;;;;;;;98.25;69.12;;;;;;;8.83;75.83;100354.03;125577;1108;26820;-79
2020/12/23 10:30:45;;;;;;;103.17;65.33;;;;;;;8.87;75.94;100347.20;125563;1108;23418;-80
2020/12/23 10:33:13;;;;;;;104.32;64.05;;;;;;;8.86;75.76;100353.69;125753;1108;23359;-80
2020/12/23 10:35:41;;;;;;;94.32;61.42;;;;;;;8.87;75.74;100353.48;125895;1108;23468;-80
2020/12/23 10:38:09;;;;;;;94.35;62.95;;;;;;;8.89;75.54;100353.31;125650;1107;26924;-79
2020/12/23 10:40:38;;;;;;;87.47;57.93;;;;;;;8.90;75.36;100347.70;125587;1108;27650;-80
2020/12/23 10:43:07;;;;;;;77.15;51.55;;;;;;;8.86;74.68;100346.36;125596;1108;23347;-81
2020/12/23 10:45:36;;;;;;;99.80;58.33;;;;;;;8.81;75.09;100332.44;125583;1107;26907;-81
2020/12/23 10:48:04;;;;;;;84.85;55.92;;;;;;;8.78;74.58;100325.48;125646;1108;23367;-81
2020/12/23 10:50:33;;;;;;;78.50;48.73;;;;;;;8.77;74.83;100326.53;125621;1107;23525;-80
2020/12/23 10:53:01;;;;;;;78.62;51.63;;;;;;;8.79;75.07;100327.20;125577;1108;26878;-80
2020/12/23 10:55:29;;;;;;;84.28;51.30;;;;;;;8.87;75.26;100326.27;125721;1108;23373;-79
2020/12/23 10:57:57;;;;;;;90.62;56.15;;;;;;;8.90;74.94;100322.37;125343;1107;25042;-79
2020/12/23 11:00:26;;;;;;;83.55;53.80;;;;;;;8.92;74.94;100321.16;125618;1108;23370;-79
2020/12/23 11:02:54;;;;;;;84.83;47.83;;;;;;;8.95;74.82;100325.38;126102;1108;23385;-80
2020/12/23 11:05:22;;;;;;;93.67;59.27;;;;;;;8.96;74.57;100324.34;125610;1108;23421;-79
2020/12/23 11:07:52;;;;;;;82.20;51.42;;;;;;;8.96;74.60;100313.45;125608;1107;26824;-78
2020/12/23 11:10:21;;;;;;;88.40;54.15;;;;;;;8.98;74.07;100325.00;125591;1108;23525;-80
2020/12/23 11:12:49;;;;;;;93.22;54.65;;;;;;;9.01;74.46;100321.94;125583;1107;23421;-79
2020/12/23 11:15:18;;;;;;;63.02;39.25;;;;;;;9.04;74.49;100324.28;125568;1108;23508;-79
2020/12/23 11:17:46;;;;;;;50.30;31.27;;;;;;;9.08;74.15;100317.45;125580;1108;23367;-81
2020/12/23 11:20:15;;;;;;;41.42;27.02;;;;;;;9.02;73.85;100310.01;125680;1108;23392;-80
2020/12/23 11:22:44;;;;;;;46.13;28.30;;;;;;;9.04;73.40;100310.67;125649;1108;24015;-80
2020/12/23 11:25:12;;;;;;;54.30;32.70;;;;;;;9.02;73.70;100306.45;125623;1108;23460;-79